• Join FlightAware (Why Join?)
  • Login
  • US Flag 
03:13AM EDT


 

Airport Tracker/Info


-or-


 

Live Flight TrackerFlight Track Log ✈ CSJ405 ✈ 03-May-2013 ✈ KROC - CYHM

Flight Track Log - Related Links

Times and Time Zones

All times are in EDT time to prevent confusion due to time zone crossing. See the CSJ405 flight status page for this flight to view local times or setup timezone preferences in your user account.

Time Position Orientation Groundspeed Altitude Reporting Facility
EDT Latitude Longitude Course Direction KTS MPH feet Rate Location/Type
10:24PM 43.1342 -77.6700 325° Northwest 113 130 1,300  Level Cleveland Center
10:25PM 43.1478 -77.7092 295° West 121 139 2,200 780 Climbing Cleveland Center
10:26PM 43.1511 -77.7603 275° West 132 152 3,000 780 Climbing Cleveland Center
10:27PM 43.1522 -77.8086 272° West 135 155 3,800 540 Climbing Cleveland Center
10:28PM 43.1494 -77.8686 266° West 148 170 4,100 120 Climbing Cleveland Center
10:29PM 43.1508 -77.9281 272° West 172 198 4,100  Level Cleveland Center
10:31PM 43.1500 -78.0333 269° West 170 196 4,100  Level Toronto Center
10:32PM 43.1500 -78.0833 270° West 170 196 4,100  Level Toronto Center
10:33PM 43.1500 -78.1500 270° West 170 196 4,100 -60 Level Toronto Center
10:34PM 43.1500 -78.2167 270° West 170 196 4,000 -60 Descending Toronto Center
10:35PM 43.1500 -78.2833 270° West 170 196 4,000  Level Toronto Center
10:36PM 43.1500 -78.3500 270° West 170 196 4,100  Climbing Toronto Center
10:37PM 43.1500 -78.4167 270° West 170 196 4,100  Level Toronto Center
10:38PM 43.1500 -78.4833 270° West 170 196 4,100  Level Toronto Center
10:39PM 43.1667 -78.5667 285° West 180 207 4,100  Level Toronto Center
10:40PM 43.1667 -78.6333 270° West 180 207 4,100  Level Toronto Center
10:41PM 43.1667 -78.6667 270° West 180 207 4,100  Level Toronto Center
10:42PM 43.1667 -78.7500 270° West 180 207 4,100  Level Toronto Center
10:43PM 43.1667 -78.8167 270° West 170 196 4,100  Level Toronto Center
10:44PM 43.1667 -78.8833 270° West 170 196 4,100  Level Toronto Center
10:45PM 43.1667 -78.9500 270° West 180 207 4,100  Level Toronto Center
10:46PM 43.1667 -79.0167 270° West 180 207 4,100  Level Toronto Center
10:47PM 43.1667 -79.0833 270° West 180 207 4,100  Level Toronto Center
10:48PM 43.1667 -79.1500 270° West 180 207 4,100  Level Toronto Center
10:49PM 43.1667 -79.2167 270° West 170 196 4,100  Level Toronto Center
10:50PM 43.1667 -79.2833 270° West 170 196 4,100  Level Toronto Center
10:51PM 43.1667 -79.3333 270° West 170 196 4,100  Level Toronto Center
10:52PM 43.1667 -79.4000 270° West 170 196 4,100  Level Toronto Center
10:53PM 43.1667 -79.4667 270° West 170 196 4,100  Level Toronto Center
10:54PM 43.1667 -79.5500 270° West 170 196 4,100  Level Toronto Center
10:55PM 43.1667 -79.6167 270° West 170 196 4,100 -180 Level Toronto Center
10:56PM 43.1667 -79.6833 270° West 180 207 3,800 -600 Descending Toronto Center
10:57PM 43.1833 -79.7500 289° West 180 207 2,900 -840 Descending Toronto Center
10:58PM 43.1833 -79.8000 270° West 130 150 2,200 -540 Descending Toronto Center
10:59PM 43.1833 -79.8333 270° West 120 138 1,900 -360 Descending Toronto Center
11:00PM 43.1667 -79.8833 245° Southwest 120 138 1,500 -600 Descending Toronto Center
11:01PM 43.1667 -79.9000 270° West 70 81 800 -360 Descending Toronto Center
11:02PM 43.1667 -79.9000 270° West 20 23 800  Level Toronto Center